YCCY

Details ICAO YCCY (CNJ)
Name Cloncurry
Region Australia
Timezone Australia/Brisbane (UTC+10.0)
Plans Departing 4
Arriving 6
Stats Elevation 616 ft / 188 m (AMSL)
Location -20.667036° 140.505328°
Runways 2
Magnetic Variation 5.966° E
Sunrise 2017-12-11 19:52:05 UTC / 2017-12-12 05:52:05 Local
Sunset 2017-12-12 09:13:51 UTC / 2017-12-12 19:13:51 Local
Advertisement - Login to hide

Runways

ID Width Length Bearing (true) Bearing (mag) Surface Threshold Offset Overrun Length
06 59 ft / 18 m 3,798 ft / 1,158 m 67.90° 61.93° Asphalt 0 ft / 0 m 0 ft / 0 m
12 98 ft / 30 m 6,561 ft / 2,000 m 128.05° 122.08° Asphalt 0 ft / 0 m 0 ft / 0 m
24 59 ft / 18 m 3,798 ft / 1,158 m 247.90° 241.93° Asphalt 0 ft / 0 m 0 ft / 0 m
30 98 ft / 30 m 6,561 ft / 2,000 m 308.05° 302.08° Asphalt 0 ft / 0 m 0 ft / 0 m

Map

Weather


0- 5 10 15 20 25 30 35+ Temperature / ° C

Clouds and Precipitation
Forecast for 2017-12-12 12:00 UTC. Updated an hour ago

Ground ~20,000 ft ~40,000 ft Winds

METAR

YCCY 121000Z AUTO 01005KT //// // ////// 35/12 Q1007

TAF

Not found

Frequencies

Unicom 126.70 MHz CTAF
Warning: Do not use this data for real-world aviation or navigation. No guarantee of current accuracy is given.